Stuttgart, Germany
Current Conditions -  °F | °C
As of 8:20 PM on Friday 28 Nov 2014 (Local Time) from EDDS Reporting Station
Broken Clouds Broken Clouds  
Wind Chill: 28°   Ceiling: 700
Heat Index: 36°   Visibility: 5mi
Dew Point: 34°   Wind: 10mph
Humidity: 93%   Direction: 70°ENE
Pressure: 29.85"   Gusts: NA
Location:  48.78°N, 9.18°E
Report Text: EDDS 281920Z 07009KT 8000 BKN007 02/01 Q1011 NOSIG
Loading
Personal Weather Stations






























Interactive Weather Map New forecast layout! Learn more

10-Day Weather Forecast

Advertisements
Track Severe Weather on mobile